Marchand, Pennsylvania
Current Conditions -  °F | °C
As of 8:15 PM on Thursday 18 Dec 2014 (Local Time) from KIDI Reporting Station
Overcast Overcast  
Wind Chill: 19°   Ceiling: 1900
Heat Index: 28°   Visibility: 10mi
Dew Point: 23°   Wind: 10mph
Humidity: 80%   Direction: 270°W
Pressure: 30.14"   Gusts: NA
Location:  40.86°N, 79.02°W
Report Text: KIDI 190115Z AUTO 27009KT 10SM OVC019 M02/M05 A3014 RMK A01
Loading
Personal Weather Stations






























Interactive Weather Map New forecast layout! Learn more

10-Day Weather Forecast

Advertisements
Track Severe Weather on mobile